Time;durP1;ratioP1;P1;durP2;ratioP2;P2;SDS_P1;SDS_P2;PMS_P1;PMS_P2;Temp;Humidity;BMP_temperature;BMP_pressure;BME280_temperature;BME280_humidity;BME280_pressure;Samples;Min_cycle;Max_cycle;Signal;HPM_P1;HPM_P2
2023/11/18 00:02:03;;;;;;;38.57;19.93;;;;;;;;;;5113558;28;20462;-27
2023/11/18 00:04:28;;;;;;;43.38;20.27;;;;;;;;;;5095300;28;20261;-27
2023/11/18 00:06:54;;;;;;;38.13;19.67;;;;;;;;;;5118192;28;20026;-27
2023/11/18 00:09:19;;;;;;;39.30;19.92;;;;;;;;;;5117859;28;20261;-26
2023/11/18 00:11:45;;;;;;;45.58;20.80;;;;;;;;;;5117713;28;20459;-27
2023/11/18 00:14:11;;;;;;;44.70;20.20;;;;;;;;;;5117751;28;20354;-27
2023/11/18 00:16:36;;;;;;;40.58;20.35;;;;;;;;;;5117340;28;20012;-26
2023/11/18 00:19:02;;;;;;;49.10;21.17;;;;;;;;;;5117316;28;20027;-27
2023/11/18 00:21:27;;;;;;;43.15;20.20;;;;;;;;;;5117286;28;20050;-27
2023/11/18 00:23:53;;;;;;;39.88;19.48;;;;;;;;;;5117529;28;20058;-27
2023/11/18 00:26:18;;;;;;;38.38;18.92;;;;;;;;;;5117103;28;20437;-27
2023/11/18 00:28:43;;;;;;;44.50;20.98;;;;;;;;;;5117475;28;20076;-27
2023/11/18 00:31:09;;;;;;;40.40;20.17;;;;;;;;;;5117086;28;20352;-27
2023/11/18 00:33:34;;;;;;;39.67;20.17;;;;;;;;;;5117101;28;20273;-27
2023/11/18 00:36:02;;;;;;;37.50;19.83;;;;;;;;;;5117377;28;20404;-27
2023/11/18 00:38:27;;;;;;;40.53;19.67;;;;;;;;;;5117336;28;20020;-27
2023/11/18 00:40:52;;;;;;;38.35;19.35;;;;;;;;;;5117047;28;20423;-26
2023/11/18 00:43:18;;;;;;;39.20;19.63;;;;;;;;;;5116980;28;20020;-27
2023/11/18 00:45:43;;;;;;;42.50;19.77;;;;;;;;;;5116964;28;20284;-27
2023/11/18 00:48:08;;;;;;;39.53;20.42;;;;;;;;;;5116746;28;20346;-27
2023/11/18 00:50:34;;;;;;;45.78;19.15;;;;;;;;;;5117034;28;20106;-27
2023/11/18 00:52:59;;;;;;;40.13;19.98;;;;;;;;;;5117109;28;20011;-26
2023/11/18 00:55:24;;;;;;;40.13;19.02;;;;;;;;;;5117275;28;20023;-27
2023/11/18 00:57:49;;;;;;;35.50;18.53;;;;;;;;;;5117263;28;20077;-27
2023/11/18 01:00:21;;;;;;;36.17;18.17;;;;;;;;;;5116552;28;20260;-27
2023/11/18 01:02:48;;;;;;;38.63;18.80;;;;;;;;;;5116794;28;20289;-27
2023/11/18 01:05:13;;;;;;;37.75;19.35;;;;;;;;;;5116712;28;20019;-27
2023/11/18 01:07:40;;;;;;;37.33;18.63;;;;;;;;;;5116497;28;20045;-27
2023/11/18 01:10:06;;;;;;;38.10;18.80;;;;;;;;;;5116291;28;20102;-27
2023/11/18 01:12:31;;;;;;;40.40;19.08;;;;;;;;;;5116208;28;20047;-27
2023/11/18 01:14:56;;;;;;;37.42;19.08;;;;;;;;;;5116907;28;20020;-27
2023/11/18 01:17:22;;;;;;;37.88;18.15;;;;;;;;;;5116327;28;20023;-27
2023/11/18 01:19:47;;;;;;;36.38;18.90;;;;;;;;;;5117305;28;20019;-27
2023/11/18 01:22:12;;;;;;;41.05;18.73;;;;;;;;;;5116250;28;20374;-27
2023/11/18 01:24:37;;;;;;;37.10;18.83;;;;;;;;;;5116215;28;20034;-26
2023/11/18 01:27:03;;;;;;;37.37;17.93;;;;;;;;;;5116012;28;20332;-27
2023/11/18 01:29:28;;;;;;;39.60;18.95;;;;;;;;;;5114905;28;20257;-27
2023/11/18 01:31:55;;;;;;;37.30;18.40;;;;;;;;;;5116332;28;20011;-27
2023/11/18 01:34:23;;;;;;;36.92;19.13;;;;;;;;;;5115899;28;20261;-27
2023/11/18 01:36:52;;;;;;;36.85;18.92;;;;;;;;;;5116108;28;20409;-27
2023/11/18 01:39:17;;;;;;;40.40;19.38;;;;;;;;;;5116121;28;20023;-27
2023/11/18 01:41:44;;;;;;;34.50;18.67;;;;;;;;;;5115790;28;20038;-27
2023/11/18 01:44:09;;;;;;;37.58;18.70;;;;;;;;;;5116033;28;20011;-27
2023/11/18 01:46:35;;;;;;;39.30;19.55;;;;;;;;;;5116012;28;20458;-27
2023/11/18 01:49:03;;;;;;;35.63;18.73;;;;;;;;;;5115952;28;20019;-27
2023/11/18 01:51:28;;;;;;;36.47;18.70;;;;;;;;;;5115728;28;20015;-27
2023/11/18 01:53:54;;;;;;;36.25;18.60;;;;;;;;;;5115593;28;20379;-27
2023/11/18 01:56:21;;;;;;;34.00;18.02;;;;;;;;;;5115555;28;20016;-27
2023/11/18 01:58:46;;;;;;;35.38;17.42;;;;;;;;;;5115415;28;20022;-26
2023/11/18 02:01:11;;;;;;;36.20;19.20;;;;;;;;;;5116018;28;20027;-27
2023/11/18 02:03:38;;;;;;;38.70;19.27;;;;;;;;;;5115872;28;20023;-27
2023/11/18 02:06:04;;;;;;;36.05;18.23;;;;;;;;;;5115160;28;20114;-30
2023/11/18 02:08:30;;;;;;;36.08;17.92;;;;;;;;;;5115588;28;20041;-27
2023/11/18 02:10:57;;;;;;;38.72;17.80;;;;;;;;;;5115184;28;20098;-26
2023/11/18 02:13:25;;;;;;;34.90;18.10;;;;;;;;;;5115115;28;20020;-26
2023/11/18 02:15:52;;;;;;;34.10;18.52;;;;;;;;;;5115384;28;20327;-27
2023/11/18 02:18:17;;;;;;;35.70;17.95;;;;;;;;;;5115038;28;20043;-27
2023/11/18 02:20:43;;;;;;;35.78;18.15;;;;;;;;;;5115187;28;20508;-27
2023/11/18 02:23:08;;;;;;;40.15;18.67;;;;;;;;;;5115507;28;20031;-27
2023/11/18 02:25:34;;;;;;;36.40;18.23;;;;;;;;;;5115204;28;20051;-27
2023/11/18 02:27:59;;;;;;;33.70;17.48;;;;;;;;;;5114308;28;20016;-27
2023/11/18 02:30:24;;;;;;;35.53;17.55;;;;;;;;;;5115329;28;20026;-26
2023/11/18 02:32:59;;;;;;;38.28;18.75;;;;;;;;;;5114793;28;20015;-27
2023/11/18 02:35:26;;;;;;;41.08;19.45;;;;;;;;;;5115404;28;20485;-27
2023/11/18 02:37:54;;;;;;;37.03;18.02;;;;;;;;;;5114949;28;20022;-26
2023/11/18 02:40:22;;;;;;;38.08;18.17;;;;;;;;;;5114935;28;20031;-27
2023/11/18 02:42:48;;;;;;;37.42;18.48;;;;;;;;;;5114608;28;20027;-27
2023/11/18 02:45:16;;;;;;;36.63;17.92;;;;;;;;;;5114551;28;20015;-27
2023/11/18 02:47:44;;;;;;;32.58;17.02;;;;;;;;;;5114449;28;20028;-27
2023/11/18 02:50:10;;;;;;;35.53;17.70;;;;;;;;;;5114330;28;20019;-26
2023/11/18 02:52:38;;;;;;;32.38;17.73;;;;;;;;;;5114752;28;20424;-26
2023/11/18 02:55:06;;;;;;;35.72;17.65;;;;;;;;;;5113572;28;20097;-27
2023/11/18 02:57:32;;;;;;;38.65;18.17;;;;;;;;;;5113740;28;20027;-27
2023/11/18 03:00:00;;;;;;;35.05;17.58;;;;;;;;;;5113830;28;20024;-26
2023/11/18 03:02:27;;;;;;;36.10;17.98;;;;;;;;;;5114214;28;20047;-27
2023/11/18 03:04:52;;;;;;;40.30;17.20;;;;;;;;;;5113648;28;20020;-27
2023/11/18 03:07:17;;;;;;;32.53;17.67;;;;;;;;;;5113876;28;20459;-26
2023/11/18 03:09:43;;;;;;;37.03;18.23;;;;;;;;;;5113325;28;20493;-27
2023/11/18 03:12:08;;;;;;;32.63;17.58;;;;;;;;;;5113207;28;20250;-27
2023/11/18 03:14:34;;;;;;;35.22;17.13;;;;;;;;;;5113498;28;20023;-27
2023/11/18 03:16:59;;;;;;;30.33;17.10;;;;;;;;;;5113004;28;20366;-27
2023/11/18 03:19:25;;;;;;;34.42;18.65;;;;;;;;;;5113017;28;20015;-27
2023/11/18 03:21:51;;;;;;;32.13;17.45;;;;;;;;;;5112623;28;20054;-27
2023/11/18 03:24:16;;;;;;;33.53;17.48;;;;;;;;;;5112894;28;20034;-27
2023/11/18 03:26:41;;;;;;;32.83;17.30;;;;;;;;;;5112871;28;20011;-26
2023/11/18 03:29:07;;;;;;;35.13;17.40;;;;;;;;;;5112664;28;20023;-26
2023/11/18 03:31:32;;;;;;;33.15;16.75;;;;;;;;;;5113283;28;20372;-27
2023/11/18 03:33:57;;;;;;;33.65;17.40;;;;;;;;;;5113272;28;20022;-27
2023/11/18 03:36:22;;;;;;;33.47;16.98;;;;;;;;;;5112940;28;20020;-27
2023/11/18 03:38:49;;;;;;;34.23;18.53;;;;;;;;;;5113122;28;20016;-28
2023/11/18 03:41:15;;;;;;;32.58;17.25;;;;;;;;;;5112349;28;20254;-27
2023/11/18 03:43:40;;;;;;;34.47;17.52;;;;;;;;;;5112866;28;20027;-26
2023/11/18 03:46:05;;;;;;;37.03;16.73;;;;;;;;;;5094700;28;20016;-27
2023/11/18 03:48:30;;;;;;;34.33;17.10;;;;;;;;;;5112796;28;20642;-26
2023/11/18 03:50:55;;;;;;;35.20;17.35;;;;;;;;;;5112940;28;20071;-26
2023/11/18 03:55:33;;;;;;;36.80;16.65;;;;;;;;;;5173147;27;19960;-27
2023/11/18 03:57:58;;;;;;;37.25;18.40;;;;;;;;;;5133697;27;20062;-26
2023/11/18 04:00:29;;;;;;;29.88;17.42;;;;;;;;;;5152760;27;20063;-27
2023/11/18 04:02:54;;;;;;;31.27;17.38;;;;;;;;;;5152523;27;20480;-27
2023/11/18 04:05:20;;;;;;;35.08;16.95;;;;;;;;;;5152179;27;20105;-27
2023/11/18 04:07:45;;;;;;;31.95;17.65;;;;;;;;;;5152217;27;20027;-27
2023/11/18 04:10:10;;;;;;;35.45;17.85;;;;;;;;;;5152374;27;20022;-27
2023/11/18 04:12:36;;;;;;;36.60;18.30;;;;;;;;;;5138030;27;20445;-27
2023/11/18 04:15:01;;;;;;;32.10;16.95;;;;;;;;;;5131359;28;20085;-27
2023/11/18 04:17:29;;;;;;;34.92;17.10;;;;;;;;;;5131387;28;20047;-29
2023/11/18 04:19:55;;;;;;;33.85;17.30;;;;;;;;;;5131488;28;20027;-27
2023/11/18 04:22:21;;;;;;;31.20;17.02;;;;;;;;;;5131788;28;20069;-27
2023/11/18 04:24:47;;;;;;;29.92;15.90;;;;;;;;;;5131742;28;20106;-27
2023/11/18 04:27:12;;;;;;;34.67;16.80;;;;;;;;;;5131144;28;20543;-27
2023/11/18 04:29:38;;;;;;;33.00;17.17;;;;;;;;;;5131063;27;20019;-27
2023/11/18 04:32:03;;;;;;;33.80;16.33;;;;;;;;;;5131025;28;20125;-27
2023/11/18 04:34:28;;;;;;;33.53;16.58;;;;;;;;;;5131470;28;20077;-27
2023/11/18 04:36:53;;;;;;;30.53;16.70;;;;;;;;;;5131026;28;20426;-27
2023/11/18 04:39:20;;;;;;;32.30;16.03;;;;;;;;;;5131470;28;20253;-27
2023/11/18 04:41:46;;;;;;;35.53;16.27;;;;;;;;;;5130791;28;20285;-27
2023/11/18 04:44:11;;;;;;;33.40;16.63;;;;;;;;;;5131324;28;20019;-27
2023/11/18 04:46:36;;;;;;;34.65;16.15;;;;;;;;;;5130830;28;20444;-27
2023/11/18 04:49:01;;;;;;;31.38;16.42;;;;;;;;;;5130675;28;20026;-27
2023/11/18 04:51:27;;;;;;;29.27;15.43;;;;;;;;;;5130674;28;20030;-27
2023/11/18 04:53:52;;;;;;;34.22;16.42;;;;;;;;;;5130439;28;20289;-27
2023/11/18 04:56:18;;;;;;;36.20;15.43;;;;;;;;;;5131094;28;20019;-31
2023/11/18 04:58:46;;;;;;;31.25;15.35;;;;;;;;;;5130436;27;20015;-27
2023/11/18 05:01:12;;;;;;;29.50;15.43;;;;;;;;;;5130804;28;20454;-27
2023/11/18 05:03:38;;;;;;;29.88;15.60;;;;;;;;;;5130414;28;20378;-27
2023/11/18 05:06:04;;;;;;;32.80;16.50;;;;;;;;;;5121527;28;20024;-27
2023/11/18 05:08:29;;;;;;;31.05;15.32;;;;;;;;;;5117177;28;20500;-27
2023/11/18 05:10:54;;;;;;;30.50;15.60;;;;;;;;;;5116641;28;20020;-26
2023/11/18 05:13:19;;;;;;;32.40;16.07;;;;;;;;;;5116491;28;20110;-27
2023/11/18 05:15:45;;;;;;;33.67;16.17;;;;;;;;;;5116531;28;20735;-27
2023/11/18 05:18:13;;;;;;;29.77;15.98;;;;;;;;;;5116798;28;20257;-27
2023/11/18 05:20:39;;;;;;;33.80;16.27;;;;;;;;;;5116693;28;20015;-27
2023/11/18 05:23:04;;;;;;;30.75;16.40;;;;;;;;;;5116928;28;20111;-27
2023/11/18 05:25:29;;;;;;;30.38;16.35;;;;;;;;;;5116323;28;20023;-27
2023/11/18 05:27:54;;;;;;;29.27;15.67;;;;;;;;;;5116824;28;20023;-27
2023/11/18 05:30:20;;;;;;;28.30;14.80;;;;;;;;;;5116565;28;20265;-27
2023/11/18 05:32:45;;;;;;;31.10;15.00;;;;;;;;;;5116210;28;20046;-27
2023/11/18 05:35:11;;;;;;;36.80;16.55;;;;;;;;;;5116348;28;20364;-27
2023/11/18 05:37:39;;;;;;;28.70;15.82;;;;;;;;;;5097855;28;20012;-28
2023/11/18 05:40:09;;;;;;;28.17;14.90;;;;;;;;;;5116018;28;20015;-27
2023/11/18 05:42:36;;;;;;;29.40;15.48;;;;;;;;;;5115971;28;20080;-27
2023/11/18 05:45:02;;;;;;;28.60;15.15;;;;;;;;;;5116240;28;20031;-27
2023/11/18 05:47:27;;;;;;;32.08;15.60;;;;;;;;;;5115857;28;20011;-27
2023/11/18 05:49:53;;;;;;;31.73;15.57;;;;;;;;;;5116413;28;20098;-27
2023/11/18 05:52:20;;;;;;;28.23;15.75;;;;;;;;;;5115850;28;20019;-27
2023/11/18 05:54:45;;;;;;;30.65;15.63;;;;;;;;;;5115596;28;20048;-27
2023/11/18 05:57:11;;;;;;;28.55;15.43;;;;;;;;;;5116028;28;20016;-27
2023/11/18 05:59:36;;;;;;;26.25;13.82;;;;;;;;;;5115631;28;20099;-27
2023/11/18 06:02:03;;;;;;;28.87;14.47;;;;;;;;;;5115675;28;20056;-27
2023/11/18 06:04:28;;;;;;;28.85;14.95;;;;;;;;;;5115609;28;20332;-28
2023/11/18 06:06:53;;;;;;;34.60;15.40;;;;;;;;;;5115573;28;20051;-27
2023/11/18 06:09:20;;;;;;;34.08;15.50;;;;;;;;;;5115460;28;20261;-27
2023/11/18 06:11:46;;;;;;;29.90;14.65;;;;;;;;;;5115722;28;20031;-27
2023/11/18 06:14:12;;;;;;;38.05;15.70;;;;;;;;;;5115355;28;20415;-27
2023/11/18 06:16:39;;;;;;;27.33;13.88;;;;;;;;;;5115002;28;20016;-27
2023/11/18 06:19:06;;;;;;;29.17;14.23;;;;;;;;;;5115138;28;20476;-27
2023/11/18 06:21:31;;;;;;;33.35;14.32;;;;;;;;;;5115265;28;20049;-31
2023/11/18 06:24:00;;;;;;;30.38;14.13;;;;;;;;;;5115452;28;20094;-27
2023/11/18 06:26:26;;;;;;;29.67;14.27;;;;;;;;;;5115037;28;20051;-27
2023/11/18 06:28:51;;;;;;;28.60;13.65;;;;;;;;;;5115590;28;20055;-27
2023/11/18 06:31:17;;;;;;;26.00;12.98;;;;;;;;;;5115097;28;20490;-27
2023/11/18 06:33:43;;;;;;;30.15;14.18;;;;;;;;;;5114945;28;20099;-27
2023/11/18 06:36:09;;;;;;;33.35;13.77;;;;;;;;;;5115463;28;20107;-27
2023/11/18 06:38:34;;;;;;;33.35;13.70;;;;;;;;;;5114875;28;20038;-28
2023/11/18 06:41:02;;;;;;;30.52;14.02;;;;;;;;;;5115671;28;20060;-27
2023/11/18 06:43:35;;;;;;;29.52;13.38;;;;;;;;;;5114857;28;20446;-27
2023/11/18 06:46:01;;;;;;;28.88;13.60;;;;;;;;;;5114810;28;20073;-27
2023/11/18 06:48:26;;;;;;;31.52;12.85;;;;;;;;;;5114676;28;20020;-26
2023/11/18 06:50:51;;;;;;;32.57;13.80;;;;;;;;;;5114662;28;20035;-27
2023/11/18 06:53:16;;;;;;;28.93;13.30;;;;;;;;;;5114660;28;20268;-27
2023/11/18 06:55:42;;;;;;;28.92;13.55;;;;;;;;;;5115167;28;20355;-27
2023/11/18 06:58:07;;;;;;;32.53;13.43;;;;;;;;;;5114470;28;20015;-27
2023/11/18 07:00:32;;;;;;;31.77;13.27;;;;;;;;;;5114976;28;20020;-27
2023/11/18 07:02:57;;;;;;;30.93;13.47;;;;;;;;;;5114964;28;20022;-27
2023/11/18 07:05:23;;;;;;;30.43;13.47;;;;;;;;;;5114345;28;20257;-27
2023/11/18 07:07:49;;;;;;;32.25;13.70;;;;;;;;;;5114658;28;20312;-27
2023/11/18 07:10:14;;;;;;;32.30;13.82;;;;;;;;;;5114343;28;20486;-27
2023/11/18 07:12:39;;;;;;;27.73;13.32;;;;;;;;;;5114237;28;20023;-27
2023/11/18 07:15:05;;;;;;;29.60;12.90;;;;;;;;;;5114423;28;20082;-27
2023/11/18 07:17:30;;;;;;;23.83;12.48;;;;;;;;;;5114143;28;20744;-27
2023/11/18 07:19:56;;;;;;;29.75;12.68;;;;;;;;;;5114422;28;20015;-27
2023/11/18 07:22:21;;;;;;;27.55;13.82;;;;;;;;;;5114404;28;20477;-27
2023/11/18 07:24:46;;;;;;;28.30;14.00;;;;;;;;;;5114355;28;20355;-27
2023/11/18 07:27:11;;;;;;;26.87;13.07;;;;;;;;;;5114114;28;20019;-27
2023/11/18 07:29:36;;;;;;;29.87;12.80;;;;;;;;;;5113802;28;20577;-27
2023/11/18 07:32:05;;;;;;;25.73;12.47;;;;;;;;;;5114512;28;20272;-27
2023/11/18 07:34:32;;;;;;;26.95;12.57;;;;;;;;;;5114106;28;20318;-27
2023/11/18 07:36:57;;;;;;;33.30;12.98;;;;;;;;;;5114164;28;20435;-27
2023/11/18 07:39:29;;;;;;;24.45;12.80;;;;;;;;;;5113935;28;20018;-27
2023/11/18 07:41:55;;;;;;;26.30;12.40;;;;;;;;;;5114131;28;20067;-27
2023/11/18 07:44:21;;;;;;;27.43;12.50;;;;;;;;;;5113846;28;20019;-28
2023/11/18 07:46:46;;;;;;;30.65;12.38;;;;;;;;;;5114112;28;20248;-29
2023/11/18 07:49:12;;;;;;;29.87;11.97;;;;;;;;;;5095500;28;20103;-27
2023/11/18 07:51:37;;;;;;;35.33;12.17;;;;;;;;;;5113733;28;20793;-27
2023/11/18 07:54:03;;;;;;;28.15;11.63;;;;;;;;;;5113869;28;20331;-27
2023/11/18 07:56:28;;;;;;;25.08;11.77;;;;;;;;;;5114032;28;20525;-27
2023/11/18 07:58:54;;;;;;;22.73;11.88;;;;;;;;;;5113964;28;20078;-27
2023/11/18 08:01:21;;;;;;;25.08;12.10;;;;;;;;;;5113982;28;20043;-27
2023/11/18 08:03:47;;;;;;;28.25;11.68;;;;;;;;;;5113621;28;20028;-27
2023/11/18 08:06:12;;;;;;;27.25;12.05;;;;;;;;;;5114091;28;20098;-27
2023/11/18 08:08:38;;;;;;;24.70;11.33;;;;;;;;;;5114129;28;20047;-27
2023/11/18 08:11:04;;;;;;;24.88;12.07;;;;;;;;;;5113478;28;20258;-27
2023/11/18 08:13:29;;;;;;;28.15;11.50;;;;;;;;;;5113961;28;20473;-28
2023/11/18 08:15:54;;;;;;;25.87;11.30;;;;;;;;;;5113778;28;20093;-27
2023/11/18 08:18:21;;;;;;;26.67;11.15;;;;;;;;;;5113967;28;20298;-27
2023/11/18 08:20:46;;;;;;;26.30;10.65;;;;;;;;;;5113725;28;20008;-27
2023/11/18 08:23:12;;;;;;;26.00;11.20;;;;;;;;;;5113297;28;20035;-27
2023/11/18 08:25:37;;;;;;;26.10;10.80;;;;;;;;;;5113385;28;20254;-27
2023/11/18 08:28:03;;;;;;;25.93;11.63;;;;;;;;;;5113868;28;20119;-31
2023/11/18 08:30:28;;;;;;;26.42;11.38;;;;;;;;;;5113703;28;20273;-27
2023/11/18 08:32:54;;;;;;;27.92;11.38;;;;;;;;;;5113332;28;20428;-27
2023/11/18 08:35:20;;;;;;;23.40;11.02;;;;;;;;;;5113790;28;20024;-27
2023/11/18 08:37:45;;;;;;;25.42;11.48;;;;;;;;;;5113294;28;20012;-27
2023/11/18 08:40:21;;;;;;;24.67;10.27;;;;;;;;;;5114013;28;20057;-27
2023/11/18 08:42:50;;;;;;;24.30;10.18;;;;;;;;;;5117400;28;20019;-27
2023/11/18 08:45:21;;;;;;;27.05;11.05;;;;;;;;;;5117319;28;20019;-27
2023/11/18 08:47:46;;;;;;;22.08;10.50;;;;;;;;;;5117320;28;20024;-27
2023/11/18 08:50:16;;;;;;;23.58;9.77;;;;;;;;;;5117214;28;20399;-27
2023/11/18 08:52:43;;;;;;;21.95;10.85;;;;;;;;;;5117086;28;20497;-27
2023/11/18 08:55:17;;;;;;;23.92;10.75;;;;;;;;;;5116449;28;20036;-27
2023/11/18 08:58:03;;;;;;;18.08;9.77;;;;;;;;;;5117045;28;20454;-26
2023/11/18 09:03:17;;;;;;;17.75;9.10;;;;;;;;;;5116873;28;20030;-27
2023/11/18 09:05:42;;;;;;;17.38;9.60;;;;;;;;;;5116552;28;20026;-27
2023/11/18 09:08:08;;;;;;;23.95;9.85;;;;;;;;;;5098227;28;20099;-27
2023/11/18 09:10:33;;;;;;;22.07;10.60;;;;;;;;;;5117048;28;20020;-27
2023/11/18 09:12:59;;;;;;;19.23;9.20;;;;;;;;;;5116332;28;20963;-27
2023/11/18 09:15:24;;;;;;;26.50;10.25;;;;;;;;;;5114653;28;20027;-27
2023/11/18 09:17:50;;;;;;;18.33;8.98;;;;;;;;;;5114504;28;20434;-27
2023/11/18 09:20:22;;;;;;;24.42;9.55;;;;;;;;;;5114275;28;20148;-27
2023/11/18 09:22:48;;;;;;;20.42;9.50;;;;;;;;;;5114193;28;20046;-27
2023/11/18 09:25:13;;;;;;;15.30;9.05;;;;;;;;;;5114486;28;20019;-27
2023/11/18 09:27:39;;;;;;;18.97;9.50;;;;;;;;;;5095853;28;20510;-27
2023/11/18 09:30:13;;;;;;;19.42;9.13;;;;;;;;;;5115391;28;20265;-27
2023/11/18 09:32:39;;;;;;;18.15;8.50;;;;;;;;;;5116299;28;20049;-31
2023/11/18 09:35:09;;;;;;;19.67;9.38;;;;;;;;;;5116371;28;20460;-27
2023/11/18 09:37:34;;;;;;;18.02;7.80;;;;;;;;;;5116144;28;20027;-27
2023/11/18 09:40:11;;;;;;;14.57;7.63;;;;;;;;;;5116052;28;20419;-27
2023/11/18 09:42:37;;;;;;;17.35;8.27;;;;;;;;;;5116341;28;20019;-27
2023/11/18 09:45:05;;;;;;;13.63;7.50;;;;;;;;;;5115966;28;20019;-27
2023/11/18 09:47:32;;;;;;;18.63;8.35;;;;;;;;;;5115983;28;20024;-27
2023/11/18 09:49:59;;;;;;;17.05;7.97;;;;;;;;;;5116239;28;20011;-27
2023/11/18 09:52:26;;;;;;;17.75;7.75;;;;;;;;;;5097557;28;20023;-27
2023/11/18 09:54:59;;;;;;;19.50;7.30;;;;;;;;;;5115645;28;20046;-27
2023/11/18 09:57:26;;;;;;;;;;;;;;;;;;5116414;28;20024;-27
2023/11/18 10:00:10;;;;;;;17.08;7.60;;;;;;;;;;5115761;28;19951;-27
2023/11/18 10:02:39;;;;;;;16.65;7.22;;;;;;;;;;5115989;28;20061;-27
2023/11/18 10:05:12;;;;;;;14.70;7.43;;;;;;;;;;5115892;28;20062;-27
2023/11/18 10:07:38;;;;;;;16.20;7.45;;;;;;;;;;5115844;28;20102;-27
2023/11/18 10:10:03;;;;;;;19.30;7.40;;;;;;;;;;5115782;28;20396;-27
2023/11/18 10:12:29;;;;;;;16.17;6.95;;;;;;;;;;5115892;28;20143;-27
2023/11/18 10:14:56;;;;;;;16.77;7.03;;;;;;;;;;5115445;28;20107;-27
2023/11/18 10:17:24;;;;;;;16.55;7.32;;;;;;;;;;5115586;28;20095;-27
2023/11/18 10:19:57;;;;;;;13.38;7.43;;;;;;;;;;5115475;28;20011;-27
2023/11/18 10:22:29;;;;;;;14.25;6.20;;;;;;;;;;5115357;28;20103;-28
2023/11/18 10:24:54;;;;;;;11.80;7.18;;;;;;;;;;5115041;28;20412;-27
2023/11/18 10:27:21;;;;;;;15.48;6.82;;;;;;;;;;5114991;28;20015;-27
2023/11/18 10:29:47;;;;;;;16.48;7.00;;;;;;;;;;5114900;28;20025;-27
2023/11/18 10:32:19;;;;;;;14.73;7.20;;;;;;;;;;5114992;28;20023;-28
2023/11/18 10:34:45;;;;;;;19.65;7.30;;;;;;;;;;5114664;28;20099;-27
2023/11/18 10:37:10;;;;;;;19.08;7.57;;;;;;;;;;5115239;28;20019;-27
2023/11/18 10:39:36;;;;;;;18.73;7.47;;;;;;;;;;5114984;28;20026;-28
2023/11/18 10:42:02;;;;;;;14.80;6.95;;;;;;;;;;5114598;28;20012;-27
2023/11/18 10:44:29;;;;;;;16.80;7.13;;;;;;;;;;5115004;28;20024;-30
2023/11/18 10:46:54;;;;;;;17.25;6.90;;;;;;;;;;5114560;28;20028;-27
2023/11/18 10:49:20;;;;;;;13.02;6.95;;;;;;;;;;5114690;28;20028;-27
2023/11/18 10:51:47;;;;;;;16.83;6.70;;;;;;;;;;5114637;28;20054;-27
2023/11/18 10:54:17;;;;;;;15.18;6.70;;;;;;;;;;5114339;28;20430;-27
2023/11/18 10:56:46;;;;;;;17.55;7.32;;;;;;;;;;5114171;28;20091;-27
2023/11/18 10:59:16;;;;;;;15.30;6.15;;;;;;;;;;5114339;28;20023;-27
2023/11/18 11:01:44;;;;;;;15.95;6.78;;;;;;;;;;5114521;28;20454;-27
2023/11/18 11:04:10;;;;;;;14.40;6.18;;;;;;;;;;5114312;28;20054;-27
2023/11/18 11:06:41;;;;;;;18.85;6.88;;;;;;;;;;5114342;28;20023;-27
2023/11/18 11:09:14;;;;;;;12.35;6.07;;;;;;;;;;5114623;28;20107;-27
2023/11/18 11:11:40;;;;;;;16.52;6.53;;;;;;;;;;5114210;28;20076;-27
2023/11/18 11:14:06;;;;;;;11.07;5.88;;;;;;;;;;5114166;28;20397;-27
2023/11/18 11:16:37;;;;;;;17.75;6.25;;;;;;;;;;5114489;28;20011;-27
2023/11/18 11:19:08;;;;;;;13.20;6.07;;;;;;;;;;5114191;28;20015;-27
2023/11/18 11:21:37;;;;;;;22.08;6.35;;;;;;;;;;5114357;28;20020;-27
2023/11/18 11:24:06;;;;;;;14.23;6.07;;;;;;;;;;5114362;28;20072;-27
2023/11/18 11:26:39;;;;;;;13.05;6.15;;;;;;;;;;5113990;28;20019;-28
2023/11/18 11:29:34;;;;;;;10.27;5.65;;;;;;;;;;5113290;28;20023;-27
2023/11/18 11:32:14;;;;;;;14.75;6.50;;;;;;;;;;5021679;28;20077;-28
2023/11/18 11:34:45;;;;;;;13.45;6.53;;;;;;;;;;5112689;28;20015;-27
2023/11/18 11:37:11;;;;;;;11.98;6.13;;;;;;;;;;5112622;28;20019;-27
2023/11/18 11:39:37;;;;;;;12.75;5.75;;;;;;;;;;5113661;28;20016;-27
2023/11/18 11:42:03;;;;;;;12.77;5.30;;;;;;;;;;5113704;28;20046;-28
2023/11/18 11:44:29;;;;;;;9.32;4.80;;;;;;;;;;5113743;28;20019;-27
2023/11/18 11:46:56;;;;;;;13.32;5.05;;;;;;;;;;5114029;28;20027;-27
2023/11/18 11:49:21;;;;;;;13.13;5.60;;;;;;;;;;5113601;28;20023;-27
2023/11/18 11:51:54;;;;;;;11.05;5.10;;;;;;;;;;5113745;28;20031;-27
2023/11/18 11:54:28;;;;;;;13.70;5.17;;;;;;;;;;5113842;28;20504;-27
2023/11/18 11:56:59;;;;;;;10.23;5.38;;;;;;;;;;5114040;28;20569;-27
2023/11/18 11:59:44;;;;;;;8.75;5.10;;;;;;;;;;5113626;28;20022;-27
2023/11/18 12:02:15;;;;;;;9.30;4.75;;;;;;;;;;5114202;28;20410;-27
2023/11/18 12:04:44;;;;;;;12.00;4.50;;;;;;;;;;5113823;28;20011;-27
2023/11/18 12:07:09;;;;;;;8.95;4.20;;;;;;;;;;5113076;28;20020;-28
2023/11/18 12:09:37;;;;;;;10.45;4.53;;;;;;;;;;5112251;28;20476;-27
2023/11/18 12:12:04;;;;;;;9.57;3.92;;;;;;;;;;5113110;28;20019;-27
2023/11/18 12:17:20;;;;;;;9.10;4.15;;;;;;;;;;5116660;28;20051;-27
2023/11/18 12:19:48;;;;;;;8.38;3.63;;;;;;;;;;5117558;28;20028;-27
2023/11/18 12:22:17;;;;;;;9.90;3.92;;;;;;;;;;5118232;28;20413;-27
2023/11/18 12:25:06;;;;;;;7.72;3.72;;;;;;;;;;5117877;28;20429;-27
2023/11/18 12:27:40;;;;;;;10.05;3.90;;;;;;;;;;5069953;28;20456;-27
2023/11/18 12:30:15;;;;;;;15.25;3.83;;;;;;;;;;5118014;28;20095;-27
2023/11/18 12:33:00;;;;;;;8.93;3.90;;;;;;;;;;5117687;28;20425;-27
2023/11/18 12:35:27;;;;;;;7.38;3.25;;;;;;;;;;5117265;28;20020;-27
2023/11/18 12:38:09;;;;;;;8.20;3.63;;;;;;;;;;5117513;28;20023;-27
2023/11/18 12:40:52;;;;;;;6.53;3.63;;;;;;;;;;5117638;28;20069;-27
2023/11/18 12:43:19;;;;;;;10.60;3.80;;;;;;;;;;5117227;28;20622;-27
2023/11/18 12:45:56;;;;;;;7.68;3.30;;;;;;;;;;5117152;28;20098;-28
2023/11/18 12:48:26;;;;;;;8.38;3.55;;;;;;;;;;5117403;28;20107;-31
2023/11/18 12:50:52;;;;;;;8.55;3.03;;;;;;;;;;5117316;28;20370;-28
2023/11/18 12:53:18;;;;;;;5.97;3.22;;;;;;;;;;5116814;28;20023;-27
2023/11/18 12:55:43;;;;;;;7.55;2.85;;;;;;;;;;5098520;28;20035;-28
2023/11/18 12:58:11;;;;;;;9.73;2.88;;;;;;;;;;5117461;28;20451;-27
2023/11/18 13:00:36;;;;;;;8.52;3.05;;;;;;;;;;5117130;28;20069;-27
2023/11/18 13:03:02;;;;;;;4.72;2.60;;;;;;;;;;5117379;28;20328;-27
2023/11/18 13:05:30;;;;;;;7.13;3.58;;;;;;;;;;5116861;28;20020;-26
2023/11/18 13:07:59;;;;;;;5.13;2.78;;;;;;;;;;5116631;28;20016;-26
2023/11/18 13:10:26;;;;;;;5.43;2.45;;;;;;;;;;5116608;28;20145;-28
2023/11/18 13:12:52;;;;;;;6.43;3.00;;;;;;;;;;5096295;28;20107;-26
2023/11/18 13:15:17;;;;;;;4.30;2.80;;;;;;;;;;5114657;28;20103;-27
2023/11/18 13:17:58;;;;;;;6.50;2.83;;;;;;;;;;5114931;28;20065;-27
2023/11/18 13:20:25;;;;;;;4.30;2.65;;;;;;;;;;5115088;28;20260;-27
2023/11/18 13:22:50;;;;;;;6.68;2.95;;;;;;;;;;5115056;28;20023;-28
2023/11/18 13:25:17;;;;;;;4.80;2.70;;;;;;;;;;5114778;28;20485;-27
2023/11/18 13:27:42;;;;;;;9.38;3.17;;;;;;;;;;5115936;28;20261;-28
2023/11/18 13:30:12;;;;;;;5.83;2.67;;;;;;;;;;5117101;28;20427;-27
2023/11/18 13:32:39;;;;;;;5.82;2.40;;;;;;;;;;5097991;28;20352;-28
2023/11/18 13:35:07;;;;;;;4.93;2.70;;;;;;;;;;5116027;28;20106;-27
2023/11/18 13:37:32;;;;;;;3.58;2.05;;;;;;;;;;5116331;28;20019;-27
2023/11/18 13:39:59;;;;;;;3.77;2.13;;;;;;;;;;5115981;28;20351;-28
2023/11/18 13:42:28;;;;;;;4.70;2.15;;;;;;;;;;5116412;28;20728;-27
2023/11/18 13:44:53;;;;;;;3.50;2.10;;;;;;;;;;5116419;28;20446;-27
2023/11/18 13:47:22;;;;;;;4.97;2.05;;;;;;;;;;5116843;28;20016;-28
2023/11/18 13:49:53;;;;;;;5.10;2.13;;;;;;;;;;5116165;28;20023;-27
2023/11/18 13:52:18;;;;;;;4.57;2.25;;;;;;;;;;5116025;28;20050;-27
2023/11/18 13:54:47;;;;;;;3.88;2.13;;;;;;;;;;5115992;28;20079;-27
2023/11/18 13:57:12;;;;;;;3.65;2.13;;;;;;;;;;5115865;28;20027;-27
2023/11/18 13:59:38;;;;;;;3.42;2.20;;;;;;;;;;5097842;28;20016;-27
2023/11/18 14:02:04;;;;;;;3.55;2.05;;;;;;;;;;5115772;28;20020;-27
2023/11/18 14:04:29;;;;;;;2.97;1.80;;;;;;;;;;5115936;28;20116;-27
2023/11/18 14:06:59;;;;;;;3.72;2.03;;;;;;;;;;5115888;28;20362;-27
2023/11/18 14:09:25;;;;;;;2.35;1.70;;;;;;;;;;5115812;28;20470;-27
2023/11/18 14:11:56;;;;;;;5.22;2.10;;;;;;;;;;5115698;28;20031;-28
2023/11/18 14:14:21;;;;;;;4.95;1.73;;;;;;;;;;5115963;28;20447;-27
2023/11/18 14:16:47;;;;;;;4.30;1.70;;;;;;;;;;5115910;28;20023;-27
2023/11/18 14:19:12;;;;;;;3.10;1.48;;;;;;;;;;5115400;28;20352;-27
2023/11/18 14:21:38;;;;;;;4.38;1.50;;;;;;;;;;5115232;28;20016;-27
2023/11/18 14:24:03;;;;;;;3.20;1.80;;;;;;;;;;5115278;28;20140;-27
2023/11/18 14:26:29;;;;;;;1.75;1.15;;;;;;;;;;5115361;28;20110;-27
2023/11/18 14:28:54;;;;;;;2.65;1.65;;;;;;;;;;5115386;28;20024;-27
2023/11/18 14:31:19;;;;;;;3.13;1.52;;;;;;;;;;5115095;28;20028;-27